Malton, United Kingdom
Current Conditions -  °F | °C
As of 3:50 AM on Saturday 25 Oct 2014 (Local Time) from EGXU Reporting Station
Broken Clouds Broken Clouds  
Wind Chill: 50°   Ceiling: 23000
Heat Index: 50°   Visibility: 6mi
Dew Point: 43°   Wind: 8mph
Humidity: 76%   Direction: 230°SW
Pressure: 29.88"   Gusts: NA
Location:  54.13°N, 0.8°W
Report Text: EGXU 250250Z AUTO 23007KT 9999 // BKN230/// 10/06 Q1012
Loading
Personal Weather Stations






























Interactive Weather Map New forecast layout! Learn more

10-Day Weather Forecast

Advertisements
Track Severe Weather on mobile